Portada
METAR-TAF:

Aeropuertos :

Humberside, Inglaterra

latitud: 53-35N, longitud: 000-21W, altitud: 31 m

Observación

El informe se hizo hace 19 minutos, a las 05:50 UTC
Viento 11 kt del suroeste
Temperatura 16°C
Humedad 88%
Presión 1016 hPa
Visibilidad 10 km o más
Escasas nubes a una altura de 2500 ft

METAR: EGNJ 250550Z 23011KT 9999 FEW025 16/14 Q1016

Hora: 07:09 (06:09 UTC)

Pronóstico

El informe se hizo hace 1 hora y 11 minutos, a las 04:58 UTC
Pronóstico válido del 25 a las 06 UTC al 25 a las 15 UTC
Viento 9 kt del suroeste
Visibilidad 10 km o más
Escasas nubes a una altura de 2500 ft

TAF: EGNJ 250458Z 2506/2515 23009KT 9999 FEW025

METAR-TAF

Observaciones y pronósticos meteorológicos de más de 4000 aeropuertos (mensajes METAR y TAF).

Los puntos amarillos y rojos representan las estaciones disponibles.

Ponga el ratón en el punto deseado para ver el nombre de la estación.

Haga clic para ver las observaciones y los pronósticos meteorológicos.

Para cambiar el mapa : haga clic en los botones verdes con una cruz de color negro para hacer un zoom, en el botón verde con un guión para alejar o en las flechas verdes para mapas adyacentes.


METAR-TAF: